Airfield :
LOGIN :

Register | Disclaimer

   EN    FR    IT 

 










Legend :    VFR   Marginal VFR   IFR   Intensive IFR   Very Intensive IFR
Visi :
Ceiling :
>= 8 km
>= 3000ft
5 to 8 km
1000 to 3000 ft
1500m to 5 km
500 to 1000 ft
800 to 1500m
200 to 500 ft
< 800m
< 200 ft
Symbols :   Thunderstorms  Fog  Heavy snow  Heavy precipitations  Wind > 20 kt
SIGMETs :     Misc.  Thunderstorms  Icing  Turbulence  Mountain Waves  Volcanic Ashes







- Airport Elevation : 464 ft
- IATA code : EVX
- Download approach charts


LFOE - Evreux

CURRENT METAR :
  • 151130Z AUTO 15010KT CAVOK 21/13 Q1010 TEMPO 4500 -SHRA

EXPIRED METARs :
  • 151100Z AUTO 16010KT 9999 FEW020 20/14 Q1010 TEMPO 4500 -SHRA
  • 151030Z AUTO 15010KT 9999 FEW020 19/14 Q1010 TEMPO 4500 -SHRA
  • 151000Z AUTO 16008KT 9999 FEW015 19/14 Q1010 TEMPO 4500 -SHRA
  • 150930Z AUTO 16009KT 130V190 9999 SCT013 BKN100 18/14 Q1010 TEMPO 4500 -SHRA
  • 150900Z AUTO 16009KT 9999 BKN011 OVC110 17/14 Q1010 BECMG SCT040

TAF TAF LFOE
Valid from the 15 at 09:00 until the 16 at 09:00 UTC


150800Z 1509/1609 14008KT 9999 SCT040
TEMPO 1509/1510 BKN008
PROB30
TEMPO 1511/1517 4500 -SHRA
No reported NOTAMs for that airfield.



MET'MAP, your aeronautical weather chart ! - Copyright ORBIFLY December 2007 - Disclaimer

ORBIFLY MET'MAP TEAM :

Programming & Development : Alexandra Zaïnal
Concept & Development : Baudouin d'Aumeries
Co-Development & Prog : Marc-Olivier Méhu
Technical & hardware support : Manuel Goepfert

Contact : metmap@orbifly.com




SOURCES & CREDITS :

   NOAA